createdAt,value
2017-12-15T00:00:17.011Z,93.44
2017-12-15T00:02:45.655Z,93.44
2017-12-15T00:05:14.338Z,93.45
2017-12-15T00:07:43.018Z,93.52
2017-12-15T00:10:11.207Z,93.50
2017-12-15T00:12:39.916Z,93.50
2017-12-15T00:15:08.591Z,93.46
2017-12-15T00:17:37.298Z,93.45
2017-12-15T00:20:06.058Z,93.40
2017-12-15T00:22:34.729Z,93.43
2017-12-15T00:25:03.399Z,93.44
2017-12-15T00:27:32.114Z,93.42
2017-12-15T00:30:00.787Z,93.42
2017-12-15T00:32:29.508Z,93.44
2017-12-15T00:34:58.186Z,93.42
2017-12-15T00:37:26.839Z,93.46
2017-12-15T00:39:55.561Z,93.42
2017-12-15T00:42:24.227Z,93.43
2017-12-15T00:44:54.130Z,93.46
2017-12-15T00:47:22.812Z,93.38
2017-12-15T00:49:51.526Z,93.38
2017-12-15T00:52:20.244Z,93.39
2017-12-15T00:54:48.940Z,93.31
2017-12-15T00:57:17.638Z,93.29
2017-12-15T00:59:46.342Z,93.29
2017-12-15T01:02:15.070Z,93.25
2017-12-15T01:04:43.744Z,93.23
2017-12-15T01:07:12.462Z,93.27
2017-12-15T01:09:41.138Z,93.22
2017-12-15T01:12:09.823Z,93.17
2017-12-15T01:14:38.515Z,93.28
2017-12-15T01:17:07.182Z,93.22
2017-12-15T01:19:35.930Z,93.24
2017-12-15T01:22:04.659Z,93.31
2017-12-15T01:24:33.300Z,93.29
2017-12-15T01:27:01.984Z,93.38
2017-12-15T01:29:30.684Z,93.37
2017-12-15T01:32:06.544Z,93.43
2017-12-15T01:34:35.366Z,93.35
2017-12-15T01:37:04.042Z,93.38
2017-12-15T01:39:32.760Z,93.38
2017-12-15T01:42:01.483Z,93.41
2017-12-15T01:44:29.910Z,93.35
2017-12-15T01:46:58.573Z,93.36
2017-12-15T01:49:27.271Z,93.45
2017-12-15T01:51:55.926Z,93.38
2017-12-15T01:54:24.632Z,93.47
2017-12-15T01:56:53.326Z,93.41
2017-12-15T01:59:22.051Z,93.34
2017-12-15T02:01:50.690Z,93.37
2017-12-15T02:04:19.596Z,93.34
2017-12-15T02:06:48.301Z,93.34
2017-12-15T02:09:21.410Z,93.38
2017-12-15T02:11:50.084Z,93.34
2017-12-15T02:14:18.451Z,93.41
2017-12-15T02:16:47.156Z,93.36
2017-12-15T02:19:16.392Z,93.43
2017-12-15T02:21:52.708Z,93.33
2017-12-15T02:24:26.621Z,93.31
2017-12-15T02:27:02.963Z,93.39
2017-12-15T02:29:40.606Z,93.29
2017-12-15T02:32:14.857Z,93.29
2017-12-15T02:35:16.128Z,93.28
2017-12-15T02:37:46.546Z,93.22
2017-12-15T02:40:18.049Z,93.25
2017-12-15T02:42:48.573Z,93.37
2017-12-15T02:45:21.179Z,93.34
2017-12-15T02:47:51.506Z,93.36
2017-12-15T02:50:21.511Z,93.36
2017-12-15T02:52:50.176Z,93.37
2017-12-15T02:55:18.890Z,93.33
2017-12-15T02:57:47.604Z,93.32
2017-12-15T03:00:16.294Z,93.28
2017-12-15T03:02:44.995Z,93.31
2017-12-15T03:05:13.670Z,93.29
2017-12-15T03:07:42.333Z,93.42
2017-12-15T03:10:11.062Z,93.36
2017-12-15T03:12:39.761Z,93.39
2017-12-15T03:15:08.430Z,93.32
2017-12-15T03:17:37.145Z,93.39
2017-12-15T03:20:05.807Z,93.35
2017-12-15T03:22:34.500Z,93.40
2017-12-15T03:25:03.145Z,93.36
2017-12-15T03:27:31.862Z,93.34
2017-12-15T03:30:00.546Z,93.31
2017-12-15T03:32:29.260Z,93.33
2017-12-15T03:34:57.960Z,93.33
2017-12-15T03:37:26.615Z,93.34
2017-12-15T03:39:55.317Z,93.37
2017-12-15T03:42:23.982Z,93.35
2017-12-15T03:44:52.681Z,93.42
2017-12-15T03:47:21.367Z,93.46
2017-12-15T03:49:50.084Z,93.38
2017-12-15T03:52:18.766Z,93.46
2017-12-15T03:54:47.430Z,93.39
2017-12-15T03:57:18.946Z,93.41
2017-12-15T03:59:47.637Z,93.36
2017-12-15T04:02:16.283Z,93.32
2017-12-15T04:04:44.994Z,93.30
2017-12-15T04:07:13.633Z,93.31
2017-12-15T04:09:42.354Z,93.36
2017-12-15T04:12:10.726Z,93.32
2017-12-15T04:14:39.419Z,93.30
2017-12-15T04:17:08.103Z,93.29
2017-12-15T04:19:36.763Z,93.25
2017-12-15T04:22:05.496Z,93.29
2017-12-15T04:24:34.160Z,93.30
2017-12-15T04:27:02.867Z,93.34
2017-12-15T04:29:31.576Z,93.33
2017-12-15T04:32:00.254Z,93.43
2017-12-15T04:34:29.135Z,93.35
2017-12-15T04:36:57.864Z,93.39
2017-12-15T04:39:26.560Z,93.42
2017-12-15T04:41:55.310Z,93.36
2017-12-15T04:44:23.980Z,93.35
2017-12-15T04:46:52.699Z,93.37
2017-12-15T04:49:21.420Z,93.43
2017-12-15T04:51:49.786Z,93.40
2017-12-15T04:54:18.516Z,93.43
2017-12-15T04:56:47.200Z,93.41
2017-12-15T04:59:15.911Z,93.38
2017-12-15T05:01:44.592Z,93.40
2017-12-15T05:04:13.232Z,93.43
2017-12-15T05:06:41.926Z,93.41
2017-12-15T05:09:26.791Z,93.37
2017-12-15T05:11:56.415Z,93.33
2017-12-15T05:14:25.809Z,93.30
2017-12-15T05:16:54.707Z,93.32
2017-12-15T05:19:24.000Z,93.31
2017-12-15T05:21:52.767Z,93.32
2017-12-15T05:24:21.655Z,93.34
2017-12-15T05:26:50.067Z,93.35
2017-12-15T05:29:18.752Z,93.38
2017-12-15T05:31:47.419Z,93.34
2017-12-15T05:34:16.119Z,93.37
2017-12-15T05:36:44.843Z,93.33
2017-12-15T05:39:13.532Z,93.36
2017-12-15T05:41:42.216Z,93.38
2017-12-15T05:44:10.947Z,93.34
2017-12-15T05:46:41.345Z,93.34
2017-12-15T05:49:10.028Z,93.36
2017-12-15T05:51:38.712Z,93.35
2017-12-15T05:54:07.414Z,93.38
2017-12-15T05:56:38.388Z,93.34
2017-12-15T05:59:12.814Z,93.32
2017-12-15T06:01:41.479Z,93.40
2017-12-15T06:04:10.123Z,93.35
2017-12-15T06:06:38.799Z,93.34
2017-12-15T06:09:07.446Z,93.34
2017-12-15T06:11:36.135Z,93.31
2017-12-15T06:14:04.825Z,93.29
2017-12-15T06:16:33.528Z,93.29
2017-12-15T06:19:02.196Z,93.31
2017-12-15T06:21:30.890Z,93.32
2017-12-15T06:23:59.591Z,93.33
2017-12-15T06:26:28.284Z,93.32
2017-12-15T06:28:56.980Z,93.30
2017-12-15T06:31:25.392Z,93.28
2017-12-15T06:33:53.745Z,93.25
2017-12-15T06:36:22.471Z,93.22
2017-12-15T06:38:51.123Z,93.24
2017-12-15T06:41:19.822Z,93.28
2017-12-15T06:43:48.563Z,93.24
2017-12-15T06:46:17.276Z,93.24
2017-12-15T06:48:45.986Z,93.24
2017-12-15T06:51:14.813Z,93.25
2017-12-15T06:53:43.508Z,93.24
2017-12-15T06:56:12.156Z,93.24
2017-12-15T06:58:40.794Z,93.21
2017-12-15T07:01:09.491Z,93.23
2017-12-15T07:03:38.151Z,93.26
2017-12-15T07:06:09.931Z,93.25
2017-12-15T07:08:38.629Z,93.26
2017-12-15T07:11:07.318Z,93.25
2017-12-15T07:13:36.006Z,93.23
2017-12-15T07:16:08.085Z,93.25
2017-12-15T07:18:36.767Z,93.26
2017-12-15T07:21:05.421Z,93.27
2017-12-15T07:23:34.098Z,93.29
2017-12-15T07:26:02.787Z,93.27
2017-12-15T07:28:31.498Z,93.27
2017-12-15T07:31:00.139Z,93.28
2017-12-15T07:33:30.460Z,93.27
2017-12-15T07:35:59.146Z,93.24
2017-12-15T07:38:27.794Z,93.24
2017-12-15T07:40:56.205Z,93.25
2017-12-15T07:43:24.906Z,93.27
2017-12-15T07:45:53.782Z,93.27
2017-12-15T07:48:22.547Z,93.26
2017-12-15T07:50:51.195Z,93.24
2017-12-15T07:53:19.894Z,93.25
2017-12-15T07:55:48.542Z,93.26
2017-12-15T07:58:17.252Z,93.26
2017-12-15T08:00:45.759Z,93.26
2017-12-15T08:03:14.449Z,93.25
2017-12-15T08:05:43.179Z,93.26
2017-12-15T08:08:11.821Z,93.28
2017-12-15T08:10:40.553Z,93.27
2017-12-15T08:13:09.209Z,93.26
2017-12-15T08:15:37.876Z,93.26
2017-12-15T08:18:06.603Z,93.25
2017-12-15T08:20:35.259Z,93.24
2017-12-15T08:23:03.946Z,93.26
2017-12-15T08:25:32.604Z,93.27
2017-12-15T08:28:01.313Z,93.29
2017-12-15T08:30:29.976Z,93.31
2017-12-15T08:32:58.635Z,93.28
2017-12-15T08:35:27.309Z,93.28
2017-12-15T08:37:55.969Z,93.25
2017-12-15T08:40:24.684Z,93.26
2017-12-15T08:42:53.410Z,93.22
2017-12-15T08:45:22.066Z,93.22
2017-12-15T08:47:50.728Z,93.21
2017-12-15T08:50:19.426Z,93.24
2017-12-15T08:52:48.079Z,93.21
2017-12-15T08:55:16.787Z,93.22
2017-12-15T08:57:45.457Z,93.21
2017-12-15T09:00:13.876Z,93.22
2017-12-15T09:02:42.545Z,93.22
2017-12-15T09:05:11.216Z,93.23
2017-12-15T09:07:39.912Z,93.23
2017-12-15T09:10:08.624Z,93.23
2017-12-15T09:12:37.314Z,93.21
2017-12-15T09:15:05.963Z,93.25
2017-12-15T09:17:34.655Z,93.25
2017-12-15T09:20:03.305Z,93.26
2017-12-15T09:22:32.029Z,93.25
2017-12-15T09:25:00.681Z,93.26
2017-12-15T09:27:29.387Z,93.29
2017-12-15T09:29:58.055Z,93.28
2017-12-15T09:32:26.715Z,93.28
2017-12-15T09:34:55.762Z,93.28
2017-12-15T09:37:24.472Z,93.27
2017-12-15T09:39:53.174Z,93.30
2017-12-15T09:42:21.519Z,93.29
2017-12-15T09:44:50.174Z,93.30
2017-12-15T09:47:18.872Z,93.34
2017-12-15T09:49:47.509Z,93.33
2017-12-15T09:52:16.204Z,93.36
2017-12-15T09:54:44.850Z,93.34
2017-12-15T09:57:13.576Z,93.37
2017-12-15T09:59:42.221Z,93.40
2017-12-15T10:02:10.904Z,93.45
2017-12-15T10:04:39.563Z,93.47
2017-12-15T10:07:08.258Z,93.49
2017-12-15T10:09:36.903Z,93.52
2017-12-15T10:12:05.540Z,93.57
2017-12-15T10:14:34.230Z,93.52
2017-12-15T10:17:02.859Z,93.50
2017-12-15T10:19:31.539Z,93.53
2017-12-15T10:22:00.211Z,93.55
2017-12-15T10:24:28.951Z,93.72
2017-12-15T10:26:57.683Z,93.63
2017-12-15T10:29:26.372Z,93.53
2017-12-15T10:31:55.056Z,93.51
2017-12-15T10:34:23.743Z,93.58
2017-12-15T10:36:52.260Z,93.54
2017-12-15T10:39:20.917Z,93.48
2017-12-15T10:41:49.592Z,93.48
2017-12-15T10:44:18.239Z,93.46
2017-12-15T10:46:46.940Z,93.47
2017-12-15T10:49:15.590Z,93.49
2017-12-15T10:51:44.292Z,93.43
2017-12-15T10:54:12.947Z,93.46
2017-12-15T10:56:41.654Z,93.56
2017-12-15T10:59:10.372Z,93.62
2017-12-15T11:01:39.021Z,93.58
2017-12-15T11:04:07.734Z,93.55
2017-12-15T11:06:36.394Z,93.42
2017-12-15T11:09:04.580Z,93.43
2017-12-15T11:11:33.262Z,93.44
2017-12-15T11:14:02.283Z,93.53
2017-12-15T11:16:30.958Z,93.53
2017-12-15T11:18:59.627Z,93.51
2017-12-15T11:21:28.313Z,93.55
2017-12-15T11:23:56.974Z,93.53
2017-12-15T11:26:25.664Z,93.41
2017-12-15T11:28:54.359Z,93.33
2017-12-15T11:31:23.026Z,93.24
2017-12-15T11:33:51.717Z,93.12
2017-12-15T11:36:20.403Z,93.24
2017-12-15T11:38:49.090Z,93.19
2017-12-15T11:41:17.801Z,93.18
2017-12-15T11:43:46.462Z,93.23
2017-12-15T11:46:15.174Z,93.17
2017-12-15T11:48:43.859Z,93.28
2017-12-15T11:51:12.495Z,93.24
2017-12-15T11:53:41.208Z,93.28
2017-12-15T11:56:10.504Z,93.19
2017-12-15T11:58:39.219Z,93.25
2017-12-15T12:01:07.880Z,93.24
2017-12-15T12:03:36.654Z,93.10
2017-12-15T12:06:10.264Z,93.25
2017-12-15T12:08:38.987Z,93.04
2017-12-15T12:11:07.660Z,93.09
2017-12-15T12:13:36.359Z,93.12
2017-12-15T12:16:09.468Z,93.09
2017-12-15T12:18:38.127Z,93.08
2017-12-15T12:21:06.841Z,92.90
2017-12-15T12:23:35.514Z,92.73
2017-12-15T12:26:04.159Z,92.69
2017-12-15T12:28:32.866Z,92.64
2017-12-15T12:31:01.541Z,92.71
2017-12-15T12:33:30.211Z,92.79
2017-12-15T12:35:58.917Z,92.97
2017-12-15T12:38:27.558Z,92.88
2017-12-15T12:40:56.238Z,92.88
2017-12-15T12:43:24.881Z,92.98
2017-12-15T12:45:55.326Z,93.04
2017-12-15T12:48:23.972Z,93.08
2017-12-15T12:50:52.656Z,93.01
2017-12-15T12:53:21.341Z,92.94
2017-12-15T12:55:50.058Z,92.99
2017-12-15T12:58:18.800Z,92.77
2017-12-15T13:00:47.440Z,92.85
2017-12-15T13:03:16.163Z,92.78
2017-12-15T13:05:44.828Z,92.86
2017-12-15T13:08:13.227Z,92.98
2017-12-15T13:10:41.926Z,92.84
2017-12-15T13:13:10.596Z,92.90
2017-12-15T13:15:39.301Z,92.98
2017-12-15T13:18:08.003Z,92.93
2017-12-15T13:20:36.699Z,92.97
2017-12-15T13:23:05.446Z,92.90
2017-12-15T13:25:34.159Z,92.93
2017-12-15T13:28:02.854Z,92.89
2017-12-15T13:30:31.574Z,92.81
2017-12-15T13:33:00.233Z,92.82
2017-12-15T13:35:28.872Z,92.81
2017-12-15T13:37:57.560Z,92.73
2017-12-15T13:40:26.221Z,92.75
2017-12-15T13:42:54.967Z,92.74
2017-12-15T13:45:23.646Z,92.75
2017-12-15T13:47:52.372Z,92.54
2017-12-15T13:50:21.063Z,92.55
2017-12-15T13:52:49.767Z,92.43
2017-12-15T13:55:18.415Z,92.32
2017-12-15T13:57:47.058Z,92.40
2017-12-15T14:00:15.763Z,92.50
2017-12-15T14:02:44.432Z,92.45
2017-12-15T14:05:13.138Z,92.48
2017-12-15T14:07:41.785Z,92.43
2017-12-15T14:10:10.491Z,92.49
2017-12-15T14:12:39.147Z,92.42
2017-12-15T14:15:07.860Z,92.41
2017-12-15T14:17:36.499Z,92.51
2017-12-15T14:20:04.893Z,92.55
2017-12-15T14:22:33.799Z,92.58
2017-12-15T14:25:02.453Z,92.52
2017-12-15T14:27:31.202Z,92.32
2017-12-15T14:29:59.863Z,92.38
2017-12-15T14:32:28.529Z,92.34
2017-12-15T14:34:57.272Z,92.31
2017-12-15T14:37:25.918Z,92.33
2017-12-15T14:39:54.605Z,92.26
2017-12-15T14:42:23.325Z,92.11
2017-12-15T14:44:52.043Z,92.19
2017-12-15T14:47:20.735Z,92.18
2017-12-15T14:49:49.392Z,92.22
2017-12-15T14:52:18.086Z,92.21
2017-12-15T14:54:46.794Z,92.28
2017-12-15T14:57:15.470Z,92.30
2017-12-15T14:59:44.213Z,92.12
2017-12-15T15:02:12.953Z,92.11
2017-12-15T15:04:41.625Z,92.13
2017-12-15T15:07:10.330Z,92.07
2017-12-15T15:09:38.995Z,92.02
2017-12-15T15:12:07.654Z,92.07
2017-12-15T15:14:36.332Z,92.07
2017-12-15T15:17:05.027Z,92.19
2017-12-15T15:19:33.695Z,92.30
2017-12-15T15:22:02.378Z,92.31
2017-12-15T15:24:31.196Z,92.30
2017-12-15T15:26:59.899Z,92.25
2017-12-15T15:29:28.527Z,92.26
2017-12-15T15:31:57.175Z,92.20
2017-12-15T15:34:25.872Z,92.18
2017-12-15T15:36:54.599Z,92.27
2017-12-15T15:39:22.963Z,92.24
2017-12-15T15:42:02.659Z,92.35
2017-12-15T15:44:31.135Z,92.31
2017-12-15T15:47:05.934Z,92.31
2017-12-15T15:49:36.949Z,92.20
2017-12-15T15:52:15.530Z,92.32
2017-12-15T15:54:43.950Z,92.38
2017-12-15T15:57:12.339Z,92.35
2017-12-15T15:59:41.416Z,92.43
2017-12-15T16:02:10.237Z,92.41
2017-12-15T16:04:38.715Z,92.40
2017-12-15T16:07:07.162Z,92.29
2017-12-15T16:09:35.532Z,92.38
2017-12-15T16:12:04.260Z,92.38
2017-12-15T16:14:32.608Z,92.38
2017-12-15T16:17:01.308Z,92.34
2017-12-15T16:19:30.010Z,92.43
2017-12-15T16:21:58.708Z,92.50
2017-12-15T16:24:27.415Z,92.50
2017-12-15T16:26:56.224Z,92.46
2017-12-15T16:29:25.220Z,92.42
2017-12-15T16:31:53.992Z,92.46
2017-12-15T16:34:22.790Z,92.47
2017-12-15T16:36:51.446Z,92.51
2017-12-15T16:39:19.838Z,92.50
2017-12-15T16:41:58.910Z,92.52
2017-12-15T16:44:37.500Z,92.41
2017-12-15T16:47:15.099Z,92.44
2017-12-15T16:49:55.142Z,92.49
2017-12-15T16:55:23.114Z,92.46
2017-12-15T16:57:56.903Z,92.40
2017-12-15T17:00:36.481Z,92.47
2017-12-15T17:03:15.702Z,92.47
2017-12-15T17:05:57.525Z,92.46
2017-12-15T17:08:37.525Z,92.52
2017-12-15T17:11:16.380Z,92.46
2017-12-15T17:13:58.030Z,92.50
2017-12-15T17:16:37.805Z,92.42
2017-12-15T17:19:15.301Z,92.49
2017-12-15T17:21:48.921Z,92.52
2017-12-15T17:24:32.143Z,92.49
2017-12-15T17:27:08.983Z,92.35
2017-12-15T17:29:51.516Z,92.52
2017-12-15T17:32:30.020Z,92.54
2017-12-15T17:35:08.364Z,92.59
2017-12-15T17:37:50.556Z,92.59
2017-12-15T17:40:29.384Z,92.60
2017-12-15T17:43:11.405Z,92.58
2017-12-15T17:45:45.260Z,92.58
2017-12-15T17:48:22.159Z,92.59
2017-12-15T17:51:00.497Z,92.58
2017-12-15T17:53:40.462Z,92.57
2017-12-15T17:56:19.345Z,92.55
2017-12-15T17:58:59.097Z,92.55
2017-12-15T18:01:36.411Z,92.56
2017-12-15T18:04:15.442Z,92.57
2017-12-15T18:06:56.856Z,92.57
2017-12-15T18:09:25.683Z,92.60
2017-12-15T18:11:54.412Z,92.60
2017-12-15T18:14:32.614Z,92.59
2017-12-15T18:17:20.292Z,92.59
2017-12-15T18:20:08.095Z,92.51
2017-12-15T18:22:55.709Z,92.14
2017-12-15T18:34:06.801Z,92.44
2017-12-15T18:36:49.900Z,92.49
2017-12-15T18:42:18.342Z,92.30
2017-12-15T18:44:54.367Z,92.37
2017-12-15T18:47:32.142Z,92.43
2017-12-15T18:50:03.855Z,92.45
2017-12-15T18:52:40.519Z,92.08
2017-12-15T18:55:21.968Z,92.32
2017-12-15T18:57:56.274Z,92.43
2017-12-15T19:00:34.698Z,92.50
2017-12-15T19:03:13.194Z,92.50
2017-12-15T19:05:55.356Z,92.51
2017-12-15T19:08:34.840Z,92.34
2017-12-15T19:11:11.415Z,92.49
2017-12-15T19:13:55.735Z,92.45
2017-12-15T19:16:42.145Z,92.45
2017-12-15T19:19:25.108Z,92.50
2017-12-15T19:21:57.868Z,92.40
2017-12-15T19:32:57.483Z,92.49
2017-12-15T19:35:35.708Z,92.50
2017-12-15T19:38:12.708Z,92.54
2017-12-15T19:40:53.003Z,92.55
2017-12-15T19:43:30.140Z,92.59
2017-12-15T19:46:07.960Z,92.58
2017-12-15T19:48:47.976Z,92.59
2017-12-15T19:51:18.752Z,92.58
2017-12-15T19:53:56.240Z,92.60
2017-12-15T19:56:25.720Z,92.57
2017-12-15T19:59:05.390Z,92.57
2017-12-15T20:01:39.869Z,92.61
2017-12-15T20:04:17.014Z,92.55
2017-12-15T20:06:56.037Z,92.61
2017-12-15T20:09:36.870Z,92.61
2017-12-15T20:12:19.547Z,92.60
2017-12-15T20:14:57.038Z,92.61
2017-12-15T20:17:37.381Z,92.58
2017-12-15T20:20:11.302Z,92.60
2017-12-15T20:22:51.874Z,92.58
2017-12-15T20:25:29.085Z,92.59
2017-12-15T20:28:05.180Z,92.58
2017-12-15T20:30:46.811Z,92.47
2017-12-15T20:33:27.170Z,92.58
2017-12-15T20:36:06.601Z,92.55
2017-12-15T20:38:41.396Z,92.60
2017-12-15T20:41:23.100Z,92.59
2017-12-15T20:44:01.738Z,92.60
2017-12-15T20:46:37.194Z,92.64
2017-12-15T20:49:19.508Z,92.64
2017-12-15T20:51:54.544Z,92.66
2017-12-15T20:54:27.730Z,92.66
2017-12-15T20:57:01.028Z,92.68
2017-12-15T20:59:34.807Z,92.66
2017-12-15T21:02:12.628Z,92.70
2017-12-15T21:04:49.449Z,92.67
2017-12-15T21:07:26.469Z,92.70
2017-12-15T21:10:06.890Z,92.69
2017-12-15T21:12:43.953Z,92.69
2017-12-15T21:15:21.328Z,92.69
2017-12-15T21:17:54.749Z,92.68
2017-12-15T21:20:29.560Z,92.67
2017-12-15T21:23:00.511Z,92.70
2017-12-15T21:25:31.932Z,92.68
2017-12-15T21:28:03.421Z,92.71
2017-12-15T21:30:34.491Z,92.70
2017-12-15T21:33:06.155Z,92.72
2017-12-15T21:35:37.469Z,92.72
2017-12-15T21:38:08.325Z,92.73
2017-12-15T21:40:38.744Z,92.73
2017-12-15T21:43:07.903Z,92.73
2017-12-15T21:45:36.598Z,92.71
2017-12-15T21:48:05.013Z,92.74
2017-12-15T21:50:33.770Z,92.72
2017-12-15T21:53:02.449Z,92.72
2017-12-15T21:55:31.166Z,92.72
2017-12-15T21:57:59.865Z,92.71
2017-12-15T22:00:28.585Z,92.72
2017-12-15T22:02:57.238Z,92.72
2017-12-15T22:05:25.969Z,92.72
2017-12-15T22:07:54.669Z,92.72
2017-12-15T22:10:23.388Z,92.73
2017-12-15T22:12:51.827Z,92.73
2017-12-15T22:15:20.547Z,92.74
2017-12-15T22:17:49.220Z,92.73
2017-12-15T22:20:17.932Z,92.72
2017-12-15T22:22:46.593Z,92.69
2017-12-15T22:25:15.284Z,92.70
2017-12-15T22:27:43.987Z,92.68
2017-12-15T22:30:12.635Z,92.66
2017-12-15T22:32:41.347Z,92.66
2017-12-15T22:35:10.017Z,92.69
2017-12-15T22:37:38.720Z,92.66
2017-12-15T22:40:07.407Z,92.66
2017-12-15T22:42:36.111Z,92.69
2017-12-15T22:45:04.865Z,92.68
2017-12-15T22:47:33.575Z,92.70
2017-12-15T22:50:02.239Z,92.67
2017-12-15T22:52:30.902Z,92.71
2017-12-15T22:54:59.620Z,92.71
2017-12-15T22:57:28.301Z,92.75
2017-12-15T22:59:56.975Z,92.73
2017-12-15T23:02:25.676Z,92.72
2017-12-15T23:04:57.430Z,92.75
2017-12-15T23:07:26.213Z,92.77
2017-12-15T23:09:54.928Z,92.74
2017-12-15T23:12:23.661Z,92.73
2017-12-15T23:14:52.344Z,92.76
2017-12-15T23:17:21.060Z,92.77
2017-12-15T23:19:49.730Z,92.75
2017-12-15T23:22:18.421Z,92.75
2017-12-15T23:24:47.151Z,92.77
2017-12-15T23:27:15.804Z,92.76
2017-12-15T23:29:44.502Z,92.76
2017-12-15T23:32:13.162Z,92.79
2017-12-15T23:34:41.954Z,92.77
2017-12-15T23:37:10.632Z,92.78
2017-12-15T23:39:39.372Z,92.79
2017-12-15T23:42:08.072Z,92.76
2017-12-15T23:44:36.734Z,92.76
2017-12-15T23:47:05.141Z,92.77
2017-12-15T23:49:33.506Z,92.75
2017-12-15T23:52:02.179Z,92.78
2017-12-15T23:54:42.075Z,92.76
2017-12-15T23:57:10.836Z,92.76
2017-12-15T23:59:39.537Z,92.74
